Time;durP1;ratioP1;P1;durP2;ratioP2;P2;SDS_P1;SDS_P2;PMS_P1;PMS_P2;Temp;Humidity;BMP_temperature;BMP_pressure;BME280_temperature;BME280_humidity;BME280_pressure;Samples;Min_cycle;Max_cycle;Signal;HPM_P1;HPM_P2
2023/03/28 00:00:30;;;;;;;14.18;4.97;;;-0.10;91.50;;;;;;4775507;29;88620;-80
2023/03/28 00:02:55;;;;;;;11.43;4.50;;;-0.10;91.60;;;;;;4783620;29;89136;-80
2023/03/28 00:22:10;;;;;;;11.57;3.92;;;-0.10;92.20;;;;;;4779020;29;91691;-77
2023/03/28 00:24:37;;;;;;;10.10;4.40;;;-0.20;92.30;;;;;;4779805;29;87462;-78
2023/03/28 00:27:04;;;;;;;10.50;4.60;;;-0.20;92.40;;;;;;4768932;29;89783;-78
2023/03/28 00:29:30;;;;;;;13.32;4.80;;;-0.20;92.20;;;;;;4776608;29;92161;-79
2023/03/28 00:31:56;;;;;;;14.00;4.32;;;-0.20;92.50;;;;;;4777997;29;89413;-81
2023/03/28 00:34:22;;;;;;;11.40;4.22;;;-0.20;92.40;;;;;;4769044;29;87771;-81
2023/03/28 00:36:49;;;;;;;13.60;5.57;;;-0.20;92.40;;;;;;4782386;29;87762;-78
2023/03/28 00:39:30;;;;;;;15.60;4.13;;;-0.20;92.40;;;;;;4779021;29;88586;-79
2023/03/28 00:42:00;;;;;;;8.38;4.03;;;-0.20;92.50;;;;;;4776868;29;88966;-78
2023/03/28 00:44:43;;;;;;;13.00;4.45;;;-0.20;92.40;;;;;;4779374;29;87556;-78
2023/03/28 00:47:26;;;;;;;11.00;4.97;;;-0.20;92.50;;;;;;4778823;29;87669;-80
2023/03/28 00:53:07;;;;;;;12.10;4.63;;;-0.30;92.40;;;;;;4780943;29;87897;-79
2023/03/28 00:55:39;;;;;;;12.98;4.65;;;-0.30;92.50;;;;;;4776925;29;88109;-77
2023/03/28 00:58:13;;;;;;;23.10;5.30;;;-0.30;92.70;;;;;;4779868;29;87527;-80
2023/03/28 01:00:40;;;;;;;;;;;-0.30;92.80;;;;;;4769776;29;90458;-81
2023/03/28 01:13:25;;;;;;;14.70;5.07;;;-0.30;92.90;;;;;;4780210;29;91934;-79
2023/03/28 01:15:51;;;;;;;17.92;4.97;;;-0.30;92.90;;;;;;4779453;29;92576;-82
2023/03/28 01:18:21;;;;;;;20.98;5.07;;;-0.30;92.80;;;;;;4781938;29;87321;-80
2023/03/28 01:21:05;;;;;;;16.83;5.50;;;-0.40;92.80;;;;;;4778689;29;87547;-78
2023/03/28 01:44:05;;;;;;;13.70;4.70;;;-0.60;93.30;;;;;;4778014;29;87376;-81
2023/03/28 01:46:55;;;;;;;13.80;5.13;;;-0.70;93.40;;;;;;4780655;29;87006;-78
2023/03/28 01:49:54;;;;;;;12.52;5.05;;;-0.70;93.60;;;;;;4777803;29;88801;-81
2023/03/28 02:19:23;;;;;;;17.20;4.93;;;-1.00;93.60;;;;;;4695347;29;92541;-82
2023/03/28 02:22:25;;;;;;;9.82;5.05;;;-1.00;93.80;;;;;;4696827;29;91989;-80
2023/03/28 02:24:51;;;;;;;14.25;4.78;;;-1.00;94.00;;;;;;4648166;30;87286;-80
2023/03/28 02:27:19;;;;;;;9.10;4.32;;;-1.00;94.00;;;;;;4646931;30;87785;-81
2023/03/28 02:29:46;;;;;;;13.13;5.20;;;-1.00;94.00;;;;;;4693588;29;89643;-80
2023/03/28 02:32:13;;;;;;;10.40;4.65;;;-1.00;93.80;;;;;;4725816;29;90982;-81
2023/03/28 02:34:41;;;;;;;12.10;4.40;;;-1.00;93.70;;;;;;4720164;29;87325;-79
2023/03/28 02:37:30;;;;;;;13.40;4.90;;;-1.00;93.70;;;;;;4729783;29;87799;-81
2023/03/28 02:40:11;;;;;;;17.48;5.28;;;-1.00;93.80;;;;;;4730428;29;93265;-80
2023/03/28 02:43:01;;;;;;;16.17;6.05;;;-1.10;93.60;;;;;;4713854;29;89099;-81
2023/03/28 02:45:35;;;;;;;12.55;5.88;;;-1.10;93.70;;;;;;4730075;29;88177;-83
2023/03/28 02:48:26;;;;;;;14.00;6.30;;;-1.10;93.50;;;;;;4730593;29;86873;-82
2023/03/28 03:01:09;;;;;;;11.60;5.00;;;-1.20;93.80;;;;;;4762114;29;90661;-81
2023/03/28 03:03:35;;;;;;;13.02;5.38;;;-1.30;93.70;;;;;;4777512;29;88723;-80
2023/03/28 03:06:05;;;;;;;13.75;5.63;;;-1.20;93.60;;;;;;4767128;29;92024;-80
2023/03/28 03:08:31;;;;;;;15.32;4.57;;;-1.30;93.50;;;;;;4774822;29;87347;-81
2023/03/28 03:10:57;;;;;;;10.85;5.03;;;-1.30;93.80;;;;;;4778986;29;87656;-81
2023/03/28 03:13:23;;;;;;;16.95;4.80;;;-1.30;93.50;;;;;;4776341;29;88287;-78
2023/03/28 03:15:49;;;;;;;13.90;4.28;;;-1.30;93.60;;;;;;4778978;29;88192;-81
2023/03/28 03:18:18;;;;;;;14.20;4.53;;;-1.30;93.70;;;;;;4778700;29;87610;-80
2023/03/28 03:20:44;;;;;;;16.60;3.83;;;-1.40;93.60;;;;;;4766256;29;89218;-80
2023/03/28 03:26:32;;;;;;;11.73;4.90;;;-1.40;93.70;;;;;;4775292;29;87936;-81
2023/03/28 03:28:59;;;;;;;13.77;4.47;;;-1.40;93.70;;;;;;4767132;29;87309;-80
2023/03/28 03:31:25;;;;;;;13.35;4.22;;;-1.40;93.60;;;;;;4766451;29;89196;-81
2023/03/28 03:33:50;;;;;;;17.23;4.47;;;-1.50;93.70;;;;;;4779033;29;88621;-84
2023/03/28 03:36:17;;;;;;;9.27;3.55;;;-1.40;93.90;;;;;;4782068;29;90463;-79
2023/03/28 03:38:43;;;;;;;13.82;4.13;;;-1.50;93.60;;;;;;4767965;29;87195;-82
2023/03/28 03:41:09;;;;;;;13.13;4.40;;;-1.40;93.80;;;;;;4776937;29;87216;-79
2023/03/28 03:43:34;;;;;;;7.40;3.50;;;-1.50;93.80;;;;;;4780666;29;89629;-82
2023/03/28 03:46:01;;;;;;;12.05;4.68;;;-1.40;93.90;;;;;;4776385;29;89849;-78
2023/03/28 03:48:26;;;;;;;10.13;4.00;;;-1.50;93.70;;;;;;4782179;29;88788;-82
2023/03/28 03:50:52;;;;;;;10.27;4.75;;;-1.50;93.90;;;;;;4775280;29;89507;-83
2023/03/28 04:00:07;;;;;;;7.68;3.92;;;-1.50;94.10;;;;;;4782053;29;87262;-81
2023/03/28 04:02:32;;;;;;;15.02;4.30;;;-1.50;94.00;;;;;;4785096;29;87702;-82
2023/03/28 04:04:58;;;;;;;11.88;4.65;;;-1.50;94.20;;;;;;4777918;29;91813;-82
2023/03/28 04:07:24;;;;;;;12.30;4.28;;;-1.50;94.30;;;;;;4785243;29;89247;-80
2023/03/28 04:28:31;;;;;;;14.75;4.97;;;-1.70;94.00;;;;;;4771161;29;91770;-78
2023/03/28 04:30:57;;;;;;;13.45;4.38;;;-1.70;94.10;;;;;;4759123;29;95435;-81
2023/03/28 04:33:28;;;;;;;13.43;4.65;;;-1.70;94.20;;;;;;4752416;29;92037;-81
2023/03/28 04:35:58;;;;;;;17.80;4.53;;;-1.80;94.00;;;;;;4760360;29;87978;-79
2023/03/28 04:38:25;;;;;;;16.27;4.53;;;-1.80;94.00;;;;;;4760840;29;87431;-82
2023/03/28 04:40:56;;;;;;;14.07;4.95;;;-1.80;94.10;;;;;;4759686;29;89777;-82
2023/03/28 04:43:26;;;;;;;16.55;5.32;;;-1.80;94.30;;;;;;4743263;29;90428;-79
2023/03/28 04:46:11;;;;;;;17.52;5.15;;;-1.80;94.40;;;;;;4761901;29;88801;-80
2023/03/28 04:48:37;;;;;;;13.52;5.22;;;-1.70;94.40;;;;;;4672278;30;90699;-79
2023/03/28 04:51:03;;;;;;;13.85;6.00;;;-1.80;94.40;;;;;;4685359;30;88041;-79
2023/03/28 04:53:28;;;;;;;14.90;5.18;;;-1.80;94.40;;;;;;4688440;30;88224;-79
2023/03/28 04:55:54;;;;;;;15.15;5.28;;;-1.70;94.40;;;;;;4687380;30;87159;-81
2023/03/28 04:58:21;;;;;;;17.48;5.13;;;-1.80;94.40;;;;;;4688321;30;87438;-82
2023/03/28 05:00:48;;;;;;;11.40;5.13;;;-1.80;94.40;;;;;;4686186;30;96308;-82
2023/03/28 05:35:17;;;;;;;18.60;5.97;;;-1.80;94.50;;;;;;4703799;29;87449;-81
2023/03/28 05:37:43;;;;;;;17.33;6.47;;;-1.80;94.50;;;;;;4702983;29;93994;-85
2023/03/28 05:40:10;;;;;;;16.27;6.63;;;-1.80;94.30;;;;;;4704659;29;88715;-82
2023/03/28 05:42:37;;;;;;;17.38;6.72;;;-1.80;94.30;;;;;;4689546;29;90167;-80
2023/03/28 05:45:06;;;;;;;15.63;7.40;;;-1.80;94.20;;;;;;4702397;29;88611;-81
2023/03/28 05:47:32;;;;;;;14.15;5.93;;;-1.80;94.20;;;;;;4682534;29;90064;-83
2023/03/28 05:49:58;;;;;;;18.50;5.90;;;-1.80;94.20;;;;;;4702743;29;87881;-80
2023/03/28 05:52:24;;;;;;;26.02;5.97;;;-1.80;94.10;;;;;;4710528;29;90197;-84
2023/03/28 05:54:50;;;;;;;12.95;6.15;;;-1.80;94.10;;;;;;4710912;29;87740;-85
2023/03/28 06:08:01;;;;;;;16.70;6.68;;;-1.50;94.40;;;;;;4704905;29;87416;-80
2023/03/28 06:10:27;;;;;;;16.50;7.22;;;-1.40;94.40;;;;;;4711439;29;90896;-81
2023/03/28 06:12:53;;;;;;;19.70;8.25;;;-1.20;94.40;;;;;;4704775;29;88974;-79
2023/03/28 06:15:18;;;;;;;19.40;8.23;;;-1.20;94.30;;;;;;4704816;29;92174;-78
2023/03/28 06:21:06;;;;;;;21.65;8.90;;;-1.00;94.40;;;;;;4704230;29;88143;-82
2023/03/28 06:23:32;;;;;;;18.33;8.38;;;-0.80;94.40;;;;;;4704020;29;87898;-79
2023/03/28 06:25:57;;;;;;;23.67;9.05;;;-0.70;94.40;;;;;;4711230;29;90204;-77
2023/03/28 06:28:23;;;;;;;20.65;8.85;;;-0.60;94.30;;;;;;4704976;29;87947;-76
2023/03/28 06:34:11;;;;;;;24.23;8.52;;;-0.30;94.30;;;;;;4706145;29;91967;-80
2023/03/28 06:36:36;;;;;;;18.77;8.00;;;-0.10;94.30;;;;;;4721912;29;88204;-78
2023/03/28 06:39:03;;;;;;;20.63;9.50;;;0.00;94.30;;;;;;4760602;29;88097;-76
2023/03/28 06:41:28;;;;;;;26.77;8.65;;;0.20;94.20;;;;;;4759540;29;87182;-77
2023/03/28 06:43:54;;;;;;;17.15;7.15;;;0.40;94.10;;;;;;4759002;29;88168;-78
2023/03/28 06:46:20;;;;;;;18.27;8.45;;;0.50;93.80;;;;;;4766451;29;89744;-80
2023/03/28 06:48:46;;;;;;;14.38;7.32;;;0.60;93.60;;;;;;4761263;29;87429;-82
2023/03/28 06:54:33;;;;;;;19.88;7.20;;;0.90;93.30;;;;;;4761725;29;87317;-81
2023/03/28 06:56:59;;;;;;;23.23;8.63;;;1.10;93.40;;;;;;4757992;29;88223;-80
2023/03/28 06:59:25;;;;;;;22.90;7.82;;;1.20;93.20;;;;;;4758308;29;87543;-79
2023/03/28 07:01:51;;;;;;;18.25;7.22;;;1.30;93.10;;;;;;4760509;29;87371;-82
2023/03/28 07:11:00;;;;;;;20.33;6.68;;;1.70;92.40;;;;;;4766642;29;87646;-81
2023/03/28 07:13:25;;;;;;;21.38;7.53;;;1.80;91.90;;;;;;4767771;29;87196;-82
2023/03/28 07:16:10;;;;;;;18.35;7.20;;;1.90;92.10;;;;;;4768665;29;87969;-80
2023/03/28 07:18:36;;;;;;;24.33;7.65;;;2.00;91.80;;;;;;4765580;29;88197;-81
2023/03/28 07:21:09;;;;;;;17.13;6.72;;;2.10;91.60;;;;;;4757151;29;87701;-77
2023/03/28 07:23:35;;;;;;;20.42;6.88;;;2.20;91.50;;;;;;4764843;29;87686;-82
2023/03/28 07:26:01;;;;;;;15.48;6.32;;;2.20;91.50;;;;;;4757286;29;95107;-81
2023/03/28 07:28:27;;;;;;;25.70;9.60;;;2.30;91.50;;;;;;4764662;29;88325;-83
2023/03/28 07:30:53;;;;;;;14.98;6.75;;;2.40;91.60;;;;;;4764585;29;88473;-80
2023/03/28 07:45:19;;;;;;;21.10;6.28;;;3.20;89.60;;;;;;4773104;29;87871;-81
2023/03/28 07:47:45;;;;;;;14.43;5.53;;;3.40;88.70;;;;;;4780241;29;87715;-78
2023/03/28 07:50:11;;;;;;;19.88;6.38;;;3.50;89.50;;;;;;4772716;29;89255;-78
2023/03/28 07:52:36;;;;;;;14.38;5.88;;;3.70;89.80;;;;;;4773708;29;88913;-78
2023/03/28 07:55:02;;;;;;;16.00;5.60;;;3.80;88.90;;;;;;4788779;29;87633;-79
2023/03/28 08:07:34;;;;;;;12.45;5.28;;;4.20;85.40;;;;;;4778855;29;87694;-80
2023/03/28 08:10:00;;;;;;;17.33;4.68;;;4.30;86.00;;;;;;4780299;29;87569;-80
2023/03/28 08:12:26;;;;;;;11.30;4.70;;;4.40;84.00;;;;;;4782839;29;87910;-78
2023/03/28 08:14:52;;;;;;;12.77;5.07;;;4.50;83.30;;;;;;4770245;29;89187;-81
2023/03/28 08:17:18;;;;;;;17.10;5.50;;;4.50;83.20;;;;;;4781635;29;87003;-82
2023/03/28 08:19:44;;;;;;;11.88;4.85;;;4.60;83.90;;;;;;4779886;29;86667;-85
2023/03/28 08:22:11;;;;;;;13.43;5.18;;;4.70;80.90;;;;;;4782278;29;88029;-86
2023/03/28 08:24:37;;;;;;;13.65;5.18;;;5.00;81.20;;;;;;4783828;29;88370;-79
2023/03/28 08:27:03;;;;;;;13.02;4.72;;;5.20;82.60;;;;;;4782026;29;88137;-80
2023/03/28 08:29:29;;;;;;;9.23;4.13;;;5.50;79.60;;;;;;4773819;29;88310;-81
2023/03/28 08:31:55;;;;;;;11.70;4.63;;;5.50;77.80;;;;;;4784965;29;87760;-81
2023/03/28 08:34:21;;;;;;;18.15;4.78;;;5.60;79.70;;;;;;4785613;29;87201;-81
2023/03/28 08:44:27;;;;;;;20.95;4.18;;;6.10;74.00;;;;;;4783806;29;88010;-78
2023/03/28 08:47:19;;;;;;;14.30;3.47;;;6.30;79.30;;;;;;4698803;29;89263;-77
2023/03/28 08:50:13;;;;;;;10.43;3.17;;;6.50;73.20;;;;;;4703204;29;87635;-78
2023/03/28 08:52:40;;;;;;;8.88;2.58;;;6.50;71.00;;;;;;4712723;29;89028;-79
2023/03/28 08:55:15;;;;;;;13.38;3.00;;;6.50;70.30;;;;;;4707013;29;90226;-77
2023/03/28 08:57:42;;;;;;;13.88;3.22;;;6.60;68.70;;;;;;4699579;29;91220;-78
2023/03/28 09:00:21;;;;;;;14.07;3.47;;;6.50;69.90;;;;;;4707407;29;87618;-78
2023/03/28 09:02:47;;;;;;;7.50;3.30;;;6.60;70.50;;;;;;4706239;29;88618;-78
2023/03/28 09:05:26;;;;;;;14.10;2.90;;;6.70;71.90;;;;;;4705188;29;88514;-77
2023/03/28 09:07:55;;;;;;;14.98;2.92;;;6.70;70.30;;;;;;4705504;29;88300;-78
2023/03/28 09:17:45;;;;;;;13.07;3.30;;;7.00;69.40;;;;;;4722329;29;87605;-77
2023/03/28 09:20:20;;;;;;;14.70;3.55;;;7.10;69.80;;;;;;4785709;29;89355;-77
2023/03/28 09:23:18;;;;;;;7.45;2.30;;;7.00;66.30;;;;;;4781054;29;88669;-78
2023/03/28 09:26:13;;;;;;;10.93;2.92;;;7.00;65.70;;;;;;4791422;29;87887;-78
2023/03/28 09:32:10;;;;;;;9.90;2.22;;;7.00;65.60;;;;;;4784150;29;87628;-77
2023/03/28 09:34:39;;;;;;;6.63;2.03;;;7.10;64.90;;;;;;4784075;29;87477;-77
2023/03/28 09:37:11;;;;;;;11.63;2.38;;;7.10;68.50;;;;;;4787819;29;87622;-77
2023/03/28 09:39:53;;;;;;;10.63;2.50;;;7.30;66.80;;;;;;4784782;29;93103;-77
2023/03/28 09:42:41;;;;;;;13.73;2.75;;;7.50;66.70;;;;;;4788301;29;88249;-78
2023/03/28 09:45:15;;;;;;;14.63;2.70;;;7.60;64.20;;;;;;4788024;29;87793;-80
2023/03/28 09:47:45;;;;;;;8.88;2.60;;;7.70;65.70;;;;;;4768803;29;90086;-79
2023/03/28 09:53:35;;;;;;;10.88;2.50;;;7.90;64.30;;;;;;4757218;29;87846;-78
2023/03/28 09:56:06;;;;;;;11.23;3.85;;;8.00;63.50;;;;;;4762646;29;87749;-78
2023/03/28 09:59:09;;;;;;;13.65;3.33;;;8.10;64.50;;;;;;4759704;29;88179;-78
2023/03/28 10:01:41;;;;;;;8.18;2.47;;;8.40;65.50;;;;;;4695163;30;88699;-77
2023/03/28 10:04:19;;;;;;;13.85;2.85;;;8.60;62.60;;;;;;4695132;30;89940;-78
2023/03/28 10:06:46;;;;;;;12.65;2.13;;;8.90;63.70;;;;;;4677754;30;87235;-78
2023/03/28 10:09:18;;;;;;;9.00;1.80;;;9.10;60.40;;;;;;4696496;30;86809;-77
2023/03/28 10:11:53;;;;;;;6.53;1.50;;;9.10;56.20;;;;;;4693476;30;88165;-78
2023/03/28 10:18:03;;;;;;;5.10;1.48;;;8.80;55.70;;;;;;4666853;30;88495;-78
2023/03/28 10:20:34;;;;;;;3.75;1.33;;;8.90;54.10;;;;;;4668092;30;87633;-78
2023/03/28 10:23:00;;;;;;;8.68;1.67;;;8.90;55.20;;;;;;4668711;30;88098;-78
2023/03/28 10:25:49;;;;;;;5.85;1.35;;;9.20;56.40;;;;;;4672504;29;88331;-80
2023/03/28 10:28:30;;;;;;;5.47;1.35;;;9.40;50.10;;;;;;4684119;30;87667;-80
2023/03/28 10:31:00;;;;;;;7.57;1.40;;;9.40;51.50;;;;;;4676649;30;87441;-81
2023/03/28 10:33:33;;;;;;;5.55;1.80;;;9.30;55.90;;;;;;4663800;30;90611;-81
2023/03/28 10:36:00;;;;;;;;;;;9.20;52.40;;;;;;4678248;29;88451;-80
2023/03/28 10:38:42;;;;;;;10.38;2.60;;;9.30;56.40;;;;;;4741834;29;87191;-80
2023/03/28 10:44:40;;;;;;;5.88;1.63;;;10.00;56.40;;;;;;4742647;29;88460;-80
2023/03/28 10:47:13;;;;;;;7.40;1.67;;;10.30;55.70;;;;;;4782059;29;92589;-80
2023/03/28 10:49:51;;;;;;;;;;;10.50;54.20;;;;;;4771840;29;87559;-80
2023/03/28 10:52:54;;;;;;;6.72;1.63;;;10.70;53.60;;;;;;4792328;29;90391;-80
2023/03/28 10:55:30;;;;;;;9.77;1.20;;;10.90;53.40;;;;;;4694718;29;91815;-79
2023/03/28 10:58:20;;;;;;;3.80;1.10;;;10.90;48.50;;;;;;4702370;29;88925;-78
2023/03/28 11:01:18;;;;;;;8.43;1.55;;;10.70;48.70;;;;;;4706036;29;89031;-79
2023/03/28 11:04:21;;;;;;;7.35;1.48;;;10.80;51.00;;;;;;4696740;29;94792;-78
2023/03/28 11:06:59;;;;;;;4.15;1.17;;;11.00;52.20;;;;;;4702368;29;93022;-78
2023/03/28 11:09:50;;;;;;;3.85;1.20;;;11.20;47.40;;;;;;4702331;29;87889;-77
2023/03/28 11:12:19;;;;;;;6.32;1.77;;;11.10;49.80;;;;;;4701625;29;88781;-78
2023/03/28 11:15:00;;;;;;;4.25;1.10;;;11.10;48.60;;;;;;4703015;29;88246;-79
2023/03/28 11:17:50;;;;;;;5.80;1.27;;;11.10;47.90;;;;;;4700915;29;88686;-78
2023/03/28 11:20:37;;;;;;;3.85;1.02;;;10.90;47.60;;;;;;4702799;29;88512;-79
2023/03/28 11:23:14;;;;;;;6.47;1.95;;;10.90;48.60;;;;;;4705752;29;87439;-78
2023/03/28 11:25:49;;;;;;;6.63;1.17;;;11.00;51.00;;;;;;4703261;29;87915;-78
2023/03/28 11:28:27;;;;;;;4.15;1.15;;;11.30;52.70;;;;;;4694768;29;91709;-78
2023/03/28 11:30:56;;;;;;;7.65;1.73;;;11.20;48.40;;;;;;4713266;29;88148;-78
2023/03/28 11:33:30;;;;;;;3.55;1.13;;;11.20;49.50;;;;;;4775295;29;87903;-78
2023/03/28 11:51:11;;;;;;;2.83;0.82;;;11.60;46.60;;;;;;4767908;29;95415;-78
2023/03/28 11:53:43;;;;;;;3.05;1.10;;;11.90;50.30;;;;;;4758518;29;88595;-78
2023/03/28 11:56:32;;;;;;;3.40;1.27;;;11.80;46.90;;;;;;4758546;29;89825;-78
2023/03/28 11:59:05;;;;;;;7.18;1.27;;;12.00;47.00;;;;;;4760296;29;87047;-79
2023/03/28 12:01:39;;;;;;;6.75;1.40;;;12.10;47.80;;;;;;4763967;29;87474;-78
2023/03/28 12:04:14;;;;;;;9.27;1.50;;;12.30;47.70;;;;;;4758363;29;89502;-78
2023/03/28 12:06:58;;;;;;;3.30;1.00;;;12.00;45.70;;;;;;4759646;29;88387;-78
2023/03/28 12:13:25;;;;;;;4.28;1.30;;;11.50;46.20;;;;;;4758786;29;91430;-78
2023/03/28 12:15:52;;;;;;;;;;;11.90;47.50;;;;;;4758777;29;93562;-79
2023/03/28 12:18:40;;;;;;;10.65;1.13;;;12.10;46.90;;;;;;4759461;29;88031;-78
2023/03/28 12:21:21;;;;;;;5.50;1.05;;;12.40;46.10;;;;;;4758190;29;87585;-77
2023/03/28 12:27:49;;;;;;;3.38;1.40;;;12.80;44.60;;;;;;4759174;29;87880;-78
2023/03/28 12:30:21;;;;;;;6.60;2.03;;;12.90;46.70;;;;;;4761049;29;87153;-78
2023/03/28 12:33:08;;;;;;;4.18;1.10;;;13.10;48.60;;;;;;4767106;29;87724;-78
2023/03/28 12:36:11;;;;;;;4.65;1.00;;;13.10;45.90;;;;;;4759873;29;87897;-78
2023/03/28 12:38:46;;;;;;;6.65;1.80;;;13.10;45.80;;;;;;4684708;30;89070;-78
2023/03/28 12:41:20;;;;;;;4.95;1.35;;;13.20;47.20;;;;;;4687712;30;89258;-78
2023/03/28 12:43:58;;;;;;;6.75;1.95;;;13.40;45.10;;;;;;4687920;30;87731;-78
2023/03/28 12:46:33;;;;;;;7.63;1.73;;;13.50;46.60;;;;;;4686364;30;87742;-78
2023/03/28 12:49:05;;;;;;;7.15;1.63;;;13.20;45.60;;;;;;4687454;30;87878;-78
2023/03/28 12:51:55;;;;;;;7.00;1.48;;;13.10;45.90;;;;;;4688105;29;91259;-79
2023/03/28 12:54:25;;;;;;;5.63;1.58;;;13.10;47.20;;;;;;4677280;30;87585;-78
2023/03/28 12:57:11;;;;;;;7.15;1.60;;;13.20;47.70;;;;;;4688134;29;88051;-80
2023/03/28 12:59:40;;;;;;;8.38;1.92;;;13.20;44.70;;;;;;4660354;30;90127;-79
2023/03/28 13:09:27;;;;;;;5.70;1.02;;;13.00;46.80;;;;;;4669491;30;87904;-79
2023/03/28 13:12:07;;;;;;;2.90;1.00;;;13.30;46.30;;;;;;4677302;30;91793;-81
2023/03/28 13:14:34;;;;;;;6.13;2.13;;;13.30;46.30;;;;;;4685678;30;87825;-81
2023/03/28 13:17:22;;;;;;;4.50;1.58;;;13.80;43.50;;;;;;4685335;30;87245;-80
2023/03/28 13:20:13;;;;;;;5.80;1.70;;;14.00;44.50;;;;;;4685165;30;88071;-81
2023/03/28 13:22:56;;;;;;;2.95;1.50;;;14.00;45.40;;;;;;4685410;30;87600;-81
2023/03/28 13:25:34;;;;;;;6.03;1.45;;;13.80;44.90;;;;;;4687416;30;88230;-81
2023/03/28 13:28:12;;;;;;;11.10;1.60;;;13.90;44.60;;;;;;4687260;30;87192;-81
2023/03/28 13:31:01;;;;;;;5.93;1.83;;;13.90;48.00;;;;;;4701973;29;91963;-81
2023/03/28 13:33:31;;;;;;;4.82;1.70;;;13.70;47.00;;;;;;4759015;29;88805;-80
2023/03/28 13:35:56;;;;;;;4.82;1.23;;;13.40;47.40;;;;;;4752595;29;91841;-79
2023/03/28 13:38:28;;;;;;;2.80;1.35;;;13.20;46.60;;;;;;4748439;29;87511;-79
2023/03/28 13:40:59;;;;;;;6.32;1.50;;;13.10;46.50;;;;;;4752209;29;89663;-79
2023/03/28 13:50:32;;;;;;;6.88;1.45;;;12.50;48.10;;;;;;4651673;30;87460;-79
2023/03/28 13:52:58;;;;;;;3.15;1.00;;;12.30;49.10;;;;;;4671602;30;88030;-79
2023/03/28 13:55:25;;;;;;;3.97;1.20;;;12.40;48.10;;;;;;4676811;30;87835;-78
2023/03/28 13:57:52;;;;;;;4.30;1.40;;;12.40;48.20;;;;;;4678054;30;88088;-79
2023/03/28 14:00:27;;;;;;;5.97;1.40;;;12.40;48.20;;;;;;4676017;30;88960;-79
2023/03/28 14:09:49;;;;;;;5.07;1.58;;;12.50;49.20;;;;;;4676667;30;92562;-79
2023/03/28 14:12:17;;;;;;;5.63;1.58;;;12.80;48.60;;;;;;4677667;30;87676;-79
2023/03/28 14:14:49;;;;;;;3.50;1.15;;;12.90;49.10;;;;;;4676673;30;87973;-78
2023/03/28 14:17:17;;;;;;;5.35;1.50;;;13.10;48.10;;;;;;4676010;30;88648;-79
2023/03/28 14:20:06;;;;;;;7.43;1.55;;;13.10;47.80;;;;;;4675584;30;88367;-79
2023/03/28 14:22:36;;;;;;;9.30;1.50;;;12.90;47.20;;;;;;4668752;29;87258;-78
2023/03/28 14:25:06;;;;;;;7.13;1.30;;;12.90;50.00;;;;;;4774975;29;87593;-79
2023/03/28 14:27:46;;;;;;;4.20;1.38;;;13.00;48.00;;;;;;4773889;29;93926;-79
2023/03/28 14:30:26;;;;;;;6.95;1.50;;;13.00;50.10;;;;;;4752595;29;92747;-79
2023/03/28 14:33:11;;;;;;;6.85;1.63;;;13.00;48.90;;;;;;4767365;29;87598;-79
2023/03/28 14:35:39;;;;;;;5.43;1.23;;;12.80;49.20;;;;;;4774396;29;87802;-79
2023/03/28 14:38:13;;;;;;;8.35;1.75;;;12.70;49.10;;;;;;4773743;29;87874;-78
2023/03/28 14:40:40;;;;;;;3.30;1.20;;;12.40;48.30;;;;;;4774854;29;88556;-79
2023/03/28 14:43:09;;;;;;;7.80;1.42;;;12.30;49.20;;;;;;4774561;29;87963;-78
2023/03/28 14:59:31;;;;;;;3.90;1.00;;;11.50;49.80;;;;;;4784149;29;87469;-79
2023/03/28 15:01:58;;;;;;;5.55;1.63;;;11.50;51.90;;;;;;4786113;29;88580;-79
2023/03/28 15:04:25;;;;;;;5.38;1.23;;;11.40;50.10;;;;;;4784279;29;90312;-79
2023/03/28 15:06:56;;;;;;;5.85;1.40;;;11.40;52.90;;;;;;4783391;29;87840;-80
2023/03/28 15:09:31;;;;;;;6.43;1.27;;;11.40;52.30;;;;;;4777460;29;90652;-79
2023/03/28 15:12:05;;;;;;;4.78;1.10;;;11.30;51.40;;;;;;4785564;29;88310;-79
2023/03/28 15:14:44;;;;;;;4.45;1.05;;;11.20;54.40;;;;;;4786731;29;88360;-79
2023/03/28 15:17:18;;;;;;;4.53;1.52;;;11.20;53.70;;;;;;4786180;29;87721;-79
2023/03/28 15:19:45;;;;;;;5.85;1.33;;;11.20;51.60;;;;;;4784945;29;88033;-78
2023/03/28 15:22:15;;;;;;;7.15;1.30;;;11.10;53.20;;;;;;4785693;29;90644;-79
2023/03/28 15:24:43;;;;;;;4.75;1.13;;;11.00;52.00;;;;;;4785256;29;91184;-79
2023/03/28 15:27:25;;;;;;;5.30;1.27;;;11.00;51.90;;;;;;4786582;29;87809;-79
2023/03/28 15:29:52;;;;;;;5.00;1.45;;;10.80;52.40;;;;;;4785567;29;88585;-79
2023/03/28 15:32:19;;;;;;;6.05;1.50;;;10.80;54.10;;;;;;4783373;29;90208;-79
2023/03/28 15:34:59;;;;;;;4.03;1.00;;;10.80;55.20;;;;;;4783585;29;90416;-79
2023/03/28 15:37:26;;;;;;;5.68;1.40;;;10.80;53.20;;;;;;4786515;29;87160;-79
2023/03/28 15:39:52;;;;;;;4.95;1.40;;;10.70;54.30;;;;;;4785957;29;86368;-79
2023/03/28 15:42:18;;;;;;;4.20;1.33;;;10.70;55.40;;;;;;4785907;29;89222;-79
2023/03/28 15:45:19;;;;;;;5.43;1.30;;;10.60;53.80;;;;;;4784939;29;87932;-79
2023/03/28 15:47:54;;;;;;;3.15;1.00;;;10.60;53.80;;;;;;4784972;29;88871;-78
2023/03/28 15:50:34;;;;;;;6.03;1.10;;;10.60;55.20;;;;;;4786079;29;87789;-79
2023/03/28 15:53:05;;;;;;;2.97;1.05;;;10.50;54.80;;;;;;4785236;29;88092;-79
2023/03/28 15:55:32;;;;;;;5.88;1.48;;;10.50;56.00;;;;;;4785618;29;88015;-79
2023/03/28 15:57:58;;;;;;;5.82;1.25;;;10.50;54.70;;;;;;4788505;29;87357;-79
2023/03/28 16:00:42;;;;;;;4.53;1.88;;;10.60;57.20;;;;;;4788558;29;87165;-79
2023/03/28 16:07:12;;;;;;;4.03;1.10;;;10.60;52.10;;;;;;4788788;29;92004;-78
2023/03/28 16:09:41;;;;;;;8.75;1.17;;;10.50;52.30;;;;;;4774838;29;87490;-78
2023/03/28 16:12:13;;;;;;;3.83;1.63;;;10.40;54.60;;;;;;4783731;29;87307;-78
2023/03/28 16:14:46;;;;;;;3.75;1.50;;;10.30;54.30;;;;;;4785852;29;88541;-80
2023/03/28 16:17:12;;;;;;;3.00;1.08;;;10.20;54.90;;;;;;4749194;29;89706;-80
2023/03/28 16:19:37;;;;;;;5.10;1.20;;;10.10;55.30;;;;;;4750380;29;87599;-79
2023/03/28 17:01:24;;;;;;;11.63;1.65;;;9.30;55.60;;;;;;4772211;29;87773;-80
2023/03/28 17:03:51;;;;;;;7.70;2.20;;;9.30;55.60;;;;;;4752982;29;91980;-78
2023/03/28 17:06:17;;;;;;;10.10;2.30;;;9.20;56.00;;;;;;4751794;29;88665;-79
2023/03/28 17:08:43;;;;;;;7.28;1.40;;;9.20;57.50;;;;;;4748886;29;91722;-79
2023/03/28 17:11:10;;;;;;;4.03;1.30;;;9.20;56.50;;;;;;4751996;29;87306;-79
2023/03/28 17:27:04;;;;;;;9.57;1.63;;;9.00;58.70;;;;;;4750419;29;87254;-78
2023/03/28 17:29:30;;;;;;;3.08;1.23;;;8.80;59.70;;;;;;4751192;29;88537;-79
2023/03/28 17:31:55;;;;;;;2.65;1.10;;;8.60;59.70;;;;;;4751060;29;88280;-78
2023/03/28 17:34:21;;;;;;;7.38;1.27;;;8.50;60.10;;;;;;4751325;29;88010;-78
2023/03/28 17:36:48;;;;;;;4.47;0.80;;;8.40;60.90;;;;;;4752361;29;87383;-79
2023/03/28 17:39:14;;;;;;;3.75;1.10;;;8.30;62.50;;;;;;4750928;29;88275;-78
2023/03/28 17:41:40;;;;;;;2.95;1.80;;;8.00;65.90;;;;;;4750440;29;88063;-79
2023/03/28 17:44:07;;;;;;;2.75;0.88;;;7.90;67.60;;;;;;4748768;29;88419;-78
2023/03/28 17:46:33;;;;;;;8.48;1.33;;;7.70;68.20;;;;;;4756423;29;89209;-79
2023/03/28 17:48:59;;;;;;;4.35;1.10;;;7.60;71.20;;;;;;4757384;29;88730;-78
2023/03/28 17:51:25;;;;;;;5.03;1.70;;;7.50;70.40;;;;;;4755169;29;87741;-78
2023/03/28 17:53:50;;;;;;;4.60;1.13;;;7.40;71.10;;;;;;4756115;29;87623;-79
2023/03/28 18:07:15;;;;;;;5.25;1.35;;;7.00;76.80;;;;;;4777440;29;87257;-78
2023/03/28 18:09:41;;;;;;;1.95;1.63;;;6.90;76.80;;;;;;4784978;29;91431;-78
2023/03/28 18:12:07;;;;;;;4.70;1.35;;;6.90;78.10;;;;;;4783310;29;91355;-78
2023/03/28 18:14:33;;;;;;;3.67;1.50;;;6.80;78.20;;;;;;4784308;29;89534;-78
2023/03/28 18:16:59;;;;;;;2.58;0.80;;;6.70;79.40;;;;;;4781542;29;87245;-77
2023/03/28 18:19:24;;;;;;;2.90;0.73;;;6.70;81.30;;;;;;4778084;29;87776;-77
2023/03/28 18:21:50;;;;;;;1.30;0.60;;;6.60;81.00;;;;;;4784294;29;92080;-77
2023/03/28 18:41:07;;;;;;;4.75;0.95;;;6.30;85.20;;;;;;4778499;29;88599;-76
2023/03/28 18:43:33;;;;;;;2.80;1.00;;;6.30;86.40;;;;;;4777676;29;87796;-76
2023/03/28 18:45:59;;;;;;;4.65;1.27;;;6.30;85.80;;;;;;4779347;29;88537;-77
2023/03/28 18:48:29;;;;;;;2.72;0.93;;;6.30;85.20;;;;;;4778939;29;88317;-77
2023/03/28 18:54:23;;;;;;;4.20;1.30;;;6.30;86.20;;;;;;4779043;29;87163;-77
2023/03/28 18:56:49;;;;;;;3.50;1.20;;;6.30;86.10;;;;;;4777768;29;88633;-77
2023/03/28 18:59:14;;;;;;;6.20;1.40;;;6.30;85.60;;;;;;4778345;29;88370;-77
2023/03/28 19:01:40;;;;;;;2.83;1.30;;;6.20;86.70;;;;;;4769121;29;87830;-77
2023/03/28 19:04:06;;;;;;;3.88;1.20;;;6.20;87.10;;;;;;4776434;29;87480;-77
2023/03/28 19:09:55;;;;;;;6.30;2.20;;;6.20;87.70;;;;;;4771494;29;92833;-77
2023/03/28 19:12:21;;;;;;;4.05;1.48;;;6.20;86.40;;;;;;4777780;29;87658;-77
2023/03/28 19:14:48;;;;;;;4.38;2.17;;;6.20;87.80;;;;;;4767443;29;89558;-77
2023/03/28 19:17:13;;;;;;;3.13;1.40;;;6.20;85.30;;;;;;4778059;29;88426;-77
2023/03/28 19:19:45;;;;;;;4.15;1.55;;;6.20;86.80;;;;;;4777639;29;87591;-77
2023/03/28 19:22:11;;;;;;;4.35;1.70;;;6.20;88.00;;;;;;4768226;29;87643;-77
2023/03/28 19:24:37;;;;;;;4.82;1.50;;;6.20;86.80;;;;;;4778377;29;87195;-77
2023/03/28 19:27:02;;;;;;;3.75;1.48;;;6.20;87.40;;;;;;4776664;29;89139;-77